Time;durP1;ratioP1;P1;durP2;ratioP2;P2;SDS_P1;SDS_P2;PMS_P1;PMS_P2;Temp;Humidity;BMP_temperature;BMP_pressure;BME280_temperature;BME280_humidity;BME280_pressure;Samples;Min_cycle;Max_cycle;Signal;HPM_P1;HPM_P2
2021/10/27 00:01:50;;;;;;;19.48;12.30;;;14.00;99.90;;;;;;4863558;29;20065;-74
2021/10/27 00:04:16;;;;;;;14.88;11.73;;;14.00;99.90;;;;;;4861232;29;20035;-74
2021/10/27 00:06:41;;;;;;;14.20;11.63;;;14.00;99.90;;;;;;4861975;29;20033;-74
2021/10/27 00:09:07;;;;;;;16.02;11.43;;;14.00;99.90;;;;;;4862258;29;20061;-76
2021/10/27 00:11:33;;;;;;;15.20;11.18;;;14.00;99.90;;;;;;4863192;29;20040;-76
2021/10/27 00:13:59;;;;;;;13.05;11.63;;;14.00;99.90;;;;;;4861608;29;20033;-75
2021/10/27 00:16:28;;;;;;;11.20;10.00;;;14.00;99.90;;;;;;4862500;29;20129;-77
2021/10/27 00:18:53;;;;;;;15.15;12.55;;;14.00;99.90;;;;;;4861864;29;20121;-77
2021/10/27 00:21:19;;;;;;;16.88;12.40;;;14.00;99.90;;;;;;4862827;29;20534;-76
2021/10/27 00:23:44;;;;;;;15.10;10.57;;;14.00;99.90;;;;;;4861212;29;20070;-79
2021/10/27 00:26:10;;;;;;;15.00;11.63;;;14.00;99.90;;;;;;4862840;29;20029;-80
2021/10/27 00:28:35;;;;;;;12.00;10.80;;;14.00;99.90;;;;;;4861448;29;20072;-78
2021/10/27 00:31:01;;;;;;;14.18;11.52;;;14.00;99.90;;;;;;4861994;29;20025;-75
2021/10/27 00:33:26;;;;;;;14.63;11.00;;;14.00;99.90;;;;;;4863057;29;20029;-78
2021/10/27 00:35:52;;;;;;;15.40;12.18;;;14.00;99.90;;;;;;4861642;29;20029;-78
2021/10/27 00:38:18;;;;;;;13.63;10.82;;;14.10;99.90;;;;;;4860647;29;20106;-79
2021/10/27 00:40:44;;;;;;;13.30;11.18;;;14.10;99.90;;;;;;4861382;29;20025;-79
2021/10/27 00:43:10;;;;;;;13.63;12.13;;;14.10;99.90;;;;;;4861236;29;20037;-79
2021/10/27 00:45:35;;;;;;;14.55;11.38;;;14.10;99.90;;;;;;4860492;29;20037;-77
2021/10/27 00:48:01;;;;;;;12.82;11.60;;;14.10;99.90;;;;;;4860981;29;20037;-77
2021/10/27 00:50:27;;;;;;;12.57;10.23;;;14.10;99.90;;;;;;4862599;29;20029;-75
2021/10/27 00:52:53;;;;;;;14.75;11.63;;;14.10;99.90;;;;;;4861886;29;20036;-75
2021/10/27 00:55:19;;;;;;;13.48;10.80;;;14.10;99.90;;;;;;4861420;29;20025;-78
2021/10/27 00:57:45;;;;;;;14.80;11.27;;;14.10;99.90;;;;;;4860961;29;20076;-75
2021/10/27 01:00:11;;;;;;;14.50;11.40;;;14.10;99.90;;;;;;4860174;29;20080;-77
2021/10/27 01:02:37;;;;;;;12.63;10.80;;;14.10;99.90;;;;;;4861080;29;20033;-79
2021/10/27 01:05:02;;;;;;;12.15;10.88;;;14.10;99.90;;;;;;4861905;29;20474;-76
2021/10/27 01:07:28;;;;;;;12.35;10.73;;;14.10;99.90;;;;;;4861495;29;20041;-75
2021/10/27 01:09:54;;;;;;;13.07;11.45;;;14.10;99.90;;;;;;4862250;29;20047;-76
2021/10/27 01:12:19;;;;;;;13.55;11.00;;;14.10;99.90;;;;;;4861329;29;20494;-78
2021/10/27 01:14:46;;;;;;;14.27;11.38;;;14.20;99.90;;;;;;4860620;29;20033;-75
2021/10/27 01:17:14;;;;;;;11.40;10.30;;;14.20;99.90;;;;;;4861842;29;20089;-75
2021/10/27 01:19:53;;;;;;;15.13;11.18;;;14.10;99.90;;;;;;4860078;29;20085;-78
2021/10/27 01:22:22;;;;;;;14.25;11.40;;;14.10;99.90;;;;;;4861868;29;20029;-78
2021/10/27 01:24:48;;;;;;;17.63;11.52;;;14.20;99.90;;;;;;4862004;29;20415;-77
2021/10/27 01:27:14;;;;;;;16.70;11.93;;;14.10;99.90;;;;;;4859621;29;20030;-79
2021/10/27 01:29:40;;;;;;;12.38;10.02;;;14.10;99.90;;;;;;4861685;29;20168;-77
2021/10/27 01:32:07;;;;;;;11.98;9.65;;;14.20;99.90;;;;;;4860139;29;20113;-75
2021/10/27 01:34:33;;;;;;;13.48;10.20;;;14.20;99.90;;;;;;4860874;29;20387;-76
2021/10/27 01:37:00;;;;;;;12.68;9.82;;;14.20;99.90;;;;;;4860309;29;20025;-80
2021/10/27 01:39:26;;;;;;;12.05;9.68;;;14.20;99.90;;;;;;4860432;29;20030;-75
2021/10/27 01:41:51;;;;;;;13.60;10.65;;;14.20;99.90;;;;;;4861187;29;20030;-76
2021/10/27 01:44:17;;;;;;;10.85;9.70;;;14.20;99.90;;;;;;4860154;29;20035;-77
2021/10/27 01:46:43;;;;;;;10.77;9.65;;;14.20;99.90;;;;;;4861944;29;20026;-77
2021/10/27 01:49:11;;;;;;;12.68;9.48;;;14.20;99.90;;;;;;4860576;29;20037;-75
2021/10/27 01:51:37;;;;;;;10.98;9.00;;;14.20;99.90;;;;;;4861488;29;20046;-75
2021/10/27 01:54:05;;;;;;;10.52;9.13;;;14.20;99.90;;;;;;4861272;29;20040;-75
2021/10/27 01:56:31;;;;;;;9.13;8.23;;;14.20;99.90;;;;;;4860775;29;20074;-75
2021/10/27 01:58:56;;;;;;;9.88;8.43;;;14.20;99.90;;;;;;4859480;29;20041;-74
2021/10/27 02:01:22;;;;;;;9.90;8.68;;;14.20;99.90;;;;;;4861379;29;20356;-74
2021/10/27 02:03:48;;;;;;;11.20;8.77;;;14.20;99.90;;;;;;4859390;29;20371;-77
2021/10/27 02:06:14;;;;;;;11.10;8.75;;;14.20;99.90;;;;;;4860966;29;20089;-78
2021/10/27 02:08:39;;;;;;;12.10;9.50;;;14.20;99.90;;;;;;4860343;29;20120;-74
2021/10/27 02:11:05;;;;;;;16.15;8.98;;;14.20;99.90;;;;;;4861015;29;20086;-75
2021/10/27 02:13:31;;;;;;;12.93;8.23;;;14.20;99.90;;;;;;4861080;29;20030;-75
2021/10/27 02:15:57;;;;;;;10.27;7.43;;;14.20;99.90;;;;;;4858644;29;20041;-74
2021/10/27 02:18:22;;;;;;;10.43;7.63;;;14.20;99.90;;;;;;4861206;29;20026;-75
2021/10/27 02:20:48;;;;;;;10.23;7.68;;;14.20;99.90;;;;;;4859601;29;20026;-74
2021/10/27 02:23:15;;;;;;;10.73;7.25;;;14.20;99.90;;;;;;4859507;29;20029;-76
2021/10/27 02:25:40;;;;;;;10.57;7.57;;;14.20;99.90;;;;;;4860945;29;20036;-78
2021/10/27 02:28:06;;;;;;;10.23;7.28;;;14.20;99.90;;;;;;4860519;29;20033;-75
2021/10/27 02:30:32;;;;;;;8.07;6.65;;;14.20;99.90;;;;;;4859995;29;20053;-77
2021/10/27 02:32:57;;;;;;;9.07;6.95;;;14.30;99.90;;;;;;4860546;29;20030;-76
2021/10/27 02:35:23;;;;;;;10.70;7.20;;;14.20;99.90;;;;;;4860728;29;20424;-76
2021/10/27 02:37:49;;;;;;;9.93;6.82;;;14.20;99.90;;;;;;4859943;29;20104;-76
2021/10/27 02:40:15;;;;;;;11.30;7.05;;;14.20;99.90;;;;;;4859447;29;20025;-79
2021/10/27 02:42:41;;;;;;;7.97;6.78;;;14.20;99.90;;;;;;4859384;29;20047;-75
2021/10/27 02:45:12;;;;;;;7.82;6.47;;;14.20;99.90;;;;;;4858638;29;20046;-78
2021/10/27 02:47:38;;;;;;;7.38;6.57;;;14.20;99.90;;;;;;4860349;29;20105;-76
2021/10/27 02:50:05;;;;;;;11.07;6.70;;;14.30;99.90;;;;;;4859112;29;20022;-76
2021/10/27 02:52:31;;;;;;;6.85;6.07;;;14.30;99.90;;;;;;4869655;29;20475;-75
2021/10/27 02:54:57;;;;;;;6.53;5.78;;;14.30;99.90;;;;;;4877277;29;20053;-75
2021/10/27 02:57:23;;;;;;;6.97;5.53;;;14.30;99.90;;;;;;4874970;29;20035;-76
2021/10/27 02:59:49;;;;;;;9.18;6.43;;;14.30;99.90;;;;;;4859738;29;20393;-75
2021/10/27 03:02:14;;;;;;;8.93;5.75;;;14.30;99.90;;;;;;4864110;29;20509;-77
2021/10/27 03:04:40;;;;;;;9.57;5.68;;;14.30;99.90;;;;;;4865442;29;20399;-76
2021/10/27 03:07:05;;;;;;;10.00;5.53;;;14.30;99.90;;;;;;4859209;29;20041;-77
2021/10/27 03:09:31;;;;;;;8.45;5.70;;;14.30;99.90;;;;;;4859962;29;20033;-78
2021/10/27 03:11:56;;;;;;;7.43;5.30;;;14.30;99.90;;;;;;4859442;29;20047;-75
2021/10/27 03:14:22;;;;;;;9.15;5.63;;;14.30;99.90;;;;;;4858931;29;20116;-79
2021/10/27 03:16:48;;;;;;;9.93;5.35;;;14.30;99.90;;;;;;4858777;29;20045;-79
2021/10/27 03:19:51;;;;;;;5.80;4.28;;;14.30;99.90;;;;;;4857707;29;20542;-77
2021/10/27 03:22:17;;;;;;;8.82;4.68;;;14.40;99.90;;;;;;4858158;29;20052;-77
2021/10/27 03:24:43;;;;;;;7.25;4.85;;;14.30;99.90;;;;;;4858910;29;20033;-76
2021/10/27 03:27:09;;;;;;;7.93;4.72;;;14.30;99.90;;;;;;4857895;29;20089;-76
2021/10/27 03:29:34;;;;;;;7.72;4.93;;;14.30;99.90;;;;;;4858801;29;20030;-75
2021/10/27 03:32:01;;;;;;;6.45;4.50;;;14.30;99.90;;;;;;4860003;29;20077;-75
2021/10/27 03:34:27;;;;;;;9.07;4.75;;;14.30;99.90;;;;;;4859715;29;20050;-75
2021/10/27 03:36:53;;;;;;;6.97;4.20;;;14.30;99.90;;;;;;4863845;29;20506;-75
2021/10/27 03:39:19;;;;;;;10.43;4.72;;;14.30;99.90;;;;;;4863534;29;20026;-79
2021/10/27 03:41:46;;;;;;;9.88;4.88;;;14.20;99.90;;;;;;4863128;29;20049;-75
2021/10/27 03:44:12;;;;;;;8.77;4.53;;;14.20;99.90;;;;;;4863537;29;20034;-76
2021/10/27 03:46:37;;;;;;;7.57;4.20;;;14.20;99.90;;;;;;4862423;29;20526;-80
2021/10/27 03:49:03;;;;;;;7.32;3.83;;;14.20;99.90;;;;;;4862705;29;20124;-79
2021/10/27 03:51:29;;;;;;;4.75;3.47;;;14.30;99.90;;;;;;4863561;29;20112;-78
2021/10/27 03:53:55;;;;;;;5.88;4.13;;;14.30;99.90;;;;;;4863618;29;20040;-75
2021/10/27 03:56:21;;;;;;;6.53;3.85;;;14.30;99.90;;;;;;4862917;29;20033;-79
2021/10/27 03:58:46;;;;;;;7.00;3.70;;;14.30;99.90;;;;;;4863230;29;20057;-78
2021/10/27 04:01:12;;;;;;;8.93;3.75;;;14.30;99.90;;;;;;4863087;29;20026;-80
2021/10/27 04:03:37;;;;;;;5.80;3.92;;;14.30;99.90;;;;;;4861435;29;20062;-80
2021/10/27 04:06:03;;;;;;;9.70;4.38;;;14.30;99.90;;;;;;4861870;29;20032;-75
2021/10/27 04:08:29;;;;;;;7.65;4.13;;;14.30;99.90;;;;;;4863109;29;20041;-75
2021/10/27 04:10:54;;;;;;;7.15;3.88;;;14.30;99.90;;;;;;4862750;29;20164;-76
2021/10/27 04:13:22;;;;;;;8.85;3.90;;;14.30;99.90;;;;;;4862925;29;20033;-75
2021/10/27 04:15:47;;;;;;;8.63;3.20;;;14.30;99.90;;;;;;4861990;29;20029;-75
2021/10/27 04:18:13;;;;;;;5.32;3.42;;;14.30;99.90;;;;;;4862197;29;20037;-76
2021/10/27 04:20:39;;;;;;;9.20;4.28;;;14.30;99.90;;;;;;4863111;29;20510;-75
2021/10/27 04:23:07;;;;;;;8.35;3.85;;;14.30;99.90;;;;;;4862777;29;20030;-75
2021/10/27 04:25:32;;;;;;;7.22;3.83;;;14.30;99.90;;;;;;4862347;29;20082;-76
2021/10/27 04:27:59;;;;;;;7.93;3.88;;;14.30;99.90;;;;;;4862551;29;20041;-78
2021/10/27 04:30:24;;;;;;;5.50;3.75;;;14.30;99.90;;;;;;4862433;29;20026;-76
2021/10/27 04:32:50;;;;;;;4.63;2.83;;;14.30;99.90;;;;;;4862887;29;20547;-79
2021/10/27 04:35:16;;;;;;;8.20;4.03;;;14.30;99.90;;;;;;4862555;29;20105;-78
2021/10/27 04:37:44;;;;;;;8.45;4.43;;;14.30;99.90;;;;;;4860806;29;20089;-75
2021/10/27 04:40:15;;;;;;;5.75;3.67;;;14.30;99.90;;;;;;4862571;29;20026;-75
2021/10/27 04:42:42;;;;;;;8.88;4.10;;;14.30;99.90;;;;;;4863055;29;20029;-78
2021/10/27 04:45:09;;;;;;;5.30;3.58;;;14.30;99.90;;;;;;4861423;29;20029;-75
2021/10/27 04:47:36;;;;;;;6.75;3.30;;;14.30;99.90;;;;;;4862274;29;20117;-75
2021/10/27 04:50:04;;;;;;;5.25;3.33;;;14.30;99.90;;;;;;4862484;29;20057;-75
2021/10/27 04:52:29;;;;;;;6.82;3.65;;;14.30;99.90;;;;;;4861866;29;20431;-75
2021/10/27 04:54:55;;;;;;;7.38;3.67;;;14.30;99.90;;;;;;4861514;29;20081;-76
2021/10/27 04:57:21;;;;;;;7.47;3.80;;;14.30;99.90;;;;;;4862467;29;20037;-76
2021/10/27 04:59:46;;;;;;;6.10;3.80;;;14.30;99.90;;;;;;4862128;29;20044;-75
2021/10/27 05:02:13;;;;;;;6.00;3.28;;;14.30;99.90;;;;;;4860724;29;20538;-78
2021/10/27 05:04:41;;;;;;;5.70;3.53;;;14.30;99.90;;;;;;4866497;29;20044;-77
2021/10/27 05:07:08;;;;;;;6.40;3.65;;;14.30;99.90;;;;;;4879827;29;20025;-79
2021/10/27 05:09:34;;;;;;;8.18;3.42;;;14.30;99.90;;;;;;4878369;29;20390;-80
2021/10/27 05:12:00;;;;;;;7.07;3.67;;;14.30;99.90;;;;;;4866767;29;20521;-79
2021/10/27 05:14:25;;;;;;;6.18;3.08;;;14.30;99.90;;;;;;4870965;29;20375;-77
2021/10/27 05:16:51;;;;;;;7.93;3.65;;;14.30;99.90;;;;;;4865557;29;20024;-77
2021/10/27 05:19:16;;;;;;;6.55;3.70;;;14.30;99.90;;;;;;4869126;29;20550;-76
2021/10/27 05:21:42;;;;;;;4.93;2.80;;;14.30;99.90;;;;;;4861823;29;20026;-77
2021/10/27 05:24:08;;;;;;;6.47;3.50;;;14.30;99.90;;;;;;4859233;29;20032;-79
2021/10/27 05:26:34;;;;;;;9.93;3.67;;;14.30;99.90;;;;;;4876682;29;20073;-80
2021/10/27 05:28:59;;;;;;;10.18;3.05;;;14.30;99.90;;;;;;4879656;29;20505;-78
2021/10/27 05:31:25;;;;;;;8.13;3.42;;;14.30;99.90;;;;;;4872246;29;20526;-74
2021/10/27 05:33:50;;;;;;;6.20;3.03;;;14.30;99.90;;;;;;4860035;29;20371;-79
2021/10/27 05:36:16;;;;;;;9.32;3.67;;;14.30;99.90;;;;;;4870523;29;20029;-78
2021/10/27 05:38:42;;;;;;;5.22;3.30;;;14.30;99.90;;;;;;4865246;29;20057;-80
2021/10/27 05:41:07;;;;;;;7.40;3.65;;;14.30;99.90;;;;;;4863193;29;20043;-79
2021/10/27 05:43:34;;;;;;;6.30;3.60;;;14.30;99.90;;;;;;4888167;29;20060;-77
2021/10/27 05:46:01;;;;;;;5.50;3.17;;;14.30;99.90;;;;;;4898731;29;20119;-78
2021/10/27 05:48:29;;;;;;;6.78;3.35;;;14.30;99.90;;;;;;4896809;29;20055;-77
2021/10/27 05:51:11;;;;;;;4.97;3.33;;;14.30;99.90;;;;;;4898906;29;20025;-78
2021/10/27 05:56:20;;;;;;;5.70;3.22;;;14.30;99.90;;;;;;4871408;29;20036;-76
2021/10/27 05:58:50;;;;;;;10.43;4.00;;;14.30;99.90;;;;;;4860286;29;20049;-79
2021/10/27 06:01:16;;;;;;;9.27;3.35;;;14.30;99.90;;;;;;4864252;29;20030;-76
2021/10/27 06:03:42;;;;;;;4.85;3.53;;;14.30;99.90;;;;;;4874885;29;20430;-79
2021/10/27 06:06:08;;;;;;;7.47;3.65;;;14.30;99.90;;;;;;4877699;29;20112;-75
2021/10/27 06:08:34;;;;;;;9.50;4.05;;;14.30;99.90;;;;;;4860114;29;20474;-76
2021/10/27 06:11:08;;;;;;;7.90;3.95;;;14.30;99.90;;;;;;4860317;29;20493;-78
2021/10/27 06:13:35;;;;;;;9.73;4.43;;;14.30;99.90;;;;;;4859946;29;20061;-77
2021/10/27 06:16:02;;;;;;;8.23;4.72;;;14.30;99.90;;;;;;4859061;29;20030;-77
2021/10/27 06:18:28;;;;;;;6.13;3.55;;;14.30;99.90;;;;;;4862611;29;20450;-78
2021/10/27 06:20:54;;;;;;;5.75;3.58;;;14.20;99.90;;;;;;4892517;29;20394;-79
2021/10/27 06:23:22;;;;;;;8.27;3.47;;;14.20;99.90;;;;;;4895817;29;20064;-76
2021/10/27 06:25:49;;;;;;;6.72;3.78;;;14.20;99.90;;;;;;4898182;29;20028;-78
2021/10/27 06:28:24;;;;;;;8.35;4.38;;;14.20;99.90;;;;;;4897712;29;20037;-75
2021/10/27 06:31:12;;;;;;;7.43;4.43;;;14.20;99.90;;;;;;4890764;29;20036;-77
2021/10/27 06:36:15;;;;;;;6.60;3.95;;;14.20;99.90;;;;;;4879276;29;20033;-76
2021/10/27 06:46:40;;;;;;;8.35;4.00;;;14.30;99.90;;;;;;4869379;29;20036;-75
2021/10/27 06:49:06;;;;;;;8.98;5.03;;;14.20;99.90;;;;;;4860266;29;20120;-76
2021/10/27 06:51:33;;;;;;;6.25;4.05;;;14.20;99.90;;;;;;4860202;29;20037;-77
2021/10/27 06:53:59;;;;;;;6.35;3.88;;;14.20;99.90;;;;;;4860376;29;20116;-79
2021/10/27 06:56:25;;;;;;;10.65;4.88;;;14.30;99.90;;;;;;4860599;29;20113;-80
2021/10/27 07:01:33;;;;;;;7.72;4.22;;;14.30;99.90;;;;;;4879157;29;20036;-77
2021/10/27 07:15:09;;;;;;;6.40;4.00;;;14.20;99.90;;;;;;4860547;29;20039;-75
2021/10/27 07:17:35;;;;;;;10.43;4.93;;;14.20;99.90;;;;;;4869411;29;20028;-76
2021/10/27 07:20:04;;;;;;;10.57;5.32;;;14.20;99.90;;;;;;4875680;29;20025;-76
2021/10/27 07:22:30;;;;;;;8.95;5.07;;;14.20;99.90;;;;;;4877782;29;20084;-78
2021/10/27 07:24:57;;;;;;;9.13;4.68;;;14.20;99.90;;;;;;4878634;29;20029;-77
2021/10/27 07:27:22;;;;;;;7.28;5.32;;;14.20;99.90;;;;;;4876985;29;20028;-79
2021/10/27 07:29:48;;;;;;;6.78;4.97;;;14.30;99.90;;;;;;4877767;29;20037;-79
2021/10/27 07:32:16;;;;;;;8.30;4.97;;;14.30;99.90;;;;;;4877632;29;20021;-81
2021/10/27 07:34:53;;;;;;;6.35;5.00;;;14.20;99.90;;;;;;4877889;29;20112;-78
2021/10/27 07:40:33;;;;;;;8.25;5.45;;;14.30;99.90;;;;;;4878487;29;20061;-75
2021/10/27 07:43:01;;;;;;;9.50;5.63;;;14.30;99.90;;;;;;4871847;29;20044;-86
2021/10/27 07:45:27;;;;;;;9.52;4.90;;;14.30;99.90;;;;;;4877127;29;20053;-79
2021/10/27 07:47:54;;;;;;;11.68;5.85;;;14.30;99.90;;;;;;4876649;29;20068;-81
2021/10/27 07:50:24;;;;;;;7.82;5.57;;;14.30;99.90;;;;;;4876146;29;20072;-79
2021/10/27 07:52:50;;;;;;;12.63;5.43;;;14.40;99.90;;;;;;4877523;29;20084;-79
2021/10/27 07:55:15;;;;;;;7.78;4.43;;;14.40;99.90;;;;;;4870392;29;20447;-86
2021/10/27 07:57:42;;;;;;;8.52;4.63;;;14.40;99.90;;;;;;4878190;29;20502;-80
2021/10/27 08:00:08;;;;;;;8.40;5.28;;;14.40;99.90;;;;;;4878290;29;20112;-85
2021/10/27 08:02:34;;;;;;;9.65;5.43;;;14.40;99.90;;;;;;4875649;29;20039;-77
2021/10/27 08:05:00;;;;;;;9.95;5.55;;;14.40;99.90;;;;;;4876100;29;20478;-79
2021/10/27 08:07:25;;;;;;;8.57;5.50;;;14.40;99.90;;;;;;4858476;29;20024;-76
2021/10/27 08:09:51;;;;;;;7.40;4.65;;;14.40;99.90;;;;;;4859195;29;20428;-79
2021/10/27 08:12:16;;;;;;;7.57;5.47;;;14.50;99.90;;;;;;4860139;29;20069;-77
2021/10/27 08:14:42;;;;;;;7.93;5.25;;;14.50;99.90;;;;;;4868997;29;20076;-77
2021/10/27 08:17:08;;;;;;;7.15;4.95;;;14.50;99.90;;;;;;4875437;29;20470;-76
2021/10/27 08:19:33;;;;;;;9.63;6.00;;;14.50;99.90;;;;;;4876872;29;20045;-77
2021/10/27 08:22:02;;;;;;;8.68;5.72;;;14.50;99.90;;;;;;4863403;29;20037;-79
2021/10/27 08:24:27;;;;;;;9.02;5.25;;;14.50;99.90;;;;;;4874588;29;20029;-80
2021/10/27 08:26:56;;;;;;;7.60;5.50;;;14.60;99.90;;;;;;4879465;29;20057;-81
2021/10/27 08:29:27;;;;;;;9.90;5.75;;;14.70;99.90;;;;;;4881480;29;20033;-81
2021/10/27 08:32:06;;;;;;;10.20;5.88;;;14.80;99.90;;;;;;4881449;29;20069;-81
2021/10/27 08:34:46;;;;;;;8.65;6.20;;;14.90;99.90;;;;;;4875868;29;20021;-79
2021/10/27 08:37:12;;;;;;;10.32;5.93;;;14.90;99.90;;;;;;4879242;29;20029;-79
2021/10/27 08:39:38;;;;;;;8.00;5.88;;;14.90;99.90;;;;;;4881268;29;20039;-78
2021/10/27 08:42:05;;;;;;;10.65;6.28;;;14.90;99.90;;;;;;4877383;29;20029;-75
2021/10/27 08:44:31;;;;;;;8.38;5.68;;;14.90;99.90;;;;;;4880567;29;20032;-78
2021/10/27 08:46:59;;;;;;;7.07;5.78;;;14.80;99.90;;;;;;4881061;29;20055;-81
2021/10/27 08:49:28;;;;;;;8.32;5.88;;;14.80;99.90;;;;;;4880215;29;20029;-78
2021/10/27 08:51:57;;;;;;;8.55;6.15;;;14.80;99.90;;;;;;4874783;29;20029;-79
2021/10/27 08:54:23;;;;;;;10.27;6.03;;;14.80;99.90;;;;;;4878872;29;20450;-76
2021/10/27 08:56:49;;;;;;;11.70;6.05;;;14.90;99.90;;;;;;4879723;29;20025;-80
2021/10/27 09:04:55;;;;;;;8.68;6.05;;;14.90;99.90;;;;;;4878810;29;20044;-75
2021/10/27 09:07:28;;;;;;;12.60;6.03;;;14.90;99.90;;;;;;4879880;29;20029;-79
2021/10/27 09:10:20;;;;;;;11.45;7.07;;;14.90;99.90;;;;;;4879215;29;20040;-77
2021/10/27 09:15:58;;;;;;;11.00;5.97;;;15.00;99.90;;;;;;4881084;29;20044;-78
2021/10/27 10:06:11;;;;;;;12.63;7.20;;;15.50;99.90;;;;;;4879852;29;20100;-80
2021/10/27 10:08:38;;;;;;;9.93;6.85;;;15.50;99.90;;;;;;4877996;29;20041;-79
2021/10/27 10:11:04;;;;;;;9.40;6.95;;;15.50;99.90;;;;;;4870530;29;20066;-80
2021/10/27 10:13:34;;;;;;;10.35;6.47;;;15.60;99.90;;;;;;4877051;29;20039;-79
2021/10/27 10:16:00;;;;;;;7.75;6.40;;;15.60;99.90;;;;;;4874736;29;20029;-80
2021/10/27 10:18:26;;;;;;;9.02;6.47;;;15.60;99.90;;;;;;4877126;29;20055;-78
2021/10/27 10:20:53;;;;;;;10.32;6.65;;;15.60;99.90;;;;;;4867470;29;20030;-81
2021/10/27 10:23:24;;;;;;;11.60;7.47;;;15.60;99.90;;;;;;4858843;29;20041;-78
2021/10/27 10:25:53;;;;;;;9.88;6.85;;;15.70;99.90;;;;;;4879245;29;20060;-86
2021/10/27 10:28:22;;;;;;;12.13;7.53;;;15.80;99.90;;;;;;4877721;29;20033;-84
2021/10/27 10:30:54;;;;;;;10.05;6.93;;;15.80;99.90;;;;;;4874148;29;20021;-79
2021/10/27 10:33:36;;;;;;;11.40;6.90;;;15.80;99.90;;;;;;4859741;29;20450;-87
2021/10/27 10:36:15;;;;;;;10.32;6.43;;;15.80;99.90;;;;;;4869617;29;20023;-82
2021/10/27 10:44:58;;;;;;;8.65;6.40;;;16.00;99.90;;;;;;4873888;29;20040;-87
2021/10/27 11:24:00;;;;;;;7.00;4.88;;;16.40;99.90;;;;;;4877852;29;20059;-87
2021/10/27 11:40:07;;;;;;;6.63;5.18;;;16.40;99.90;;;;;;4875850;29;20037;-83
2021/10/27 11:45:23;;;;;;;6.53;4.63;;;16.40;99.90;;;;;;4877244;29;20033;-84
2021/10/27 11:47:53;;;;;;;8.50;5.10;;;16.40;99.90;;;;;;4877599;29;20037;-89
2021/10/27 11:50:21;;;;;;;10.43;5.47;;;16.40;99.90;;;;;;4876557;29;20044;-82
2021/10/27 11:52:50;;;;;;;6.18;4.57;;;16.40;99.90;;;;;;4865880;29;20022;-84
2021/10/27 11:55:17;;;;;;;7.72;5.35;;;16.40;99.90;;;;;;4876363;29;20095;-85
2021/10/27 11:57:46;;;;;;;7.82;5.25;;;16.50;99.90;;;;;;4880666;29;20131;-79
2021/10/27 12:00:26;;;;;;;6.82;5.38;;;16.60;99.90;;;;;;4880940;29;20062;-92
2021/10/27 12:03:07;;;;;;;6.45;5.10;;;16.60;99.90;;;;;;4879768;29;20111;-92
2021/10/27 12:05:45;;;;;;;10.68;5.15;;;16.60;99.90;;;;;;4881099;29;20063;-80
2021/10/27 12:13:39;;;;;;;6.13;4.65;;;16.60;99.90;;;;;;4880890;29;20116;-88
2021/10/27 12:19:13;;;;;;;6.30;4.70;;;16.70;99.90;;;;;;4878192;29;20116;-81
2021/10/27 12:21:46;;;;;;;6.13;4.63;;;16.60;99.90;;;;;;4881349;29;20119;-92
2021/10/27 12:24:17;;;;;;;8.10;4.75;;;16.70;99.90;;;;;;4880833;29;20025;-87
2021/10/27 12:26:55;;;;;;;7.90;4.35;;;16.70;99.90;;;;;;4879844;29;20039;-90
2021/10/27 12:29:27;;;;;;;8.48;6.07;;;16.70;99.90;;;;;;4878641;29;20077;-87
2021/10/27 12:32:14;;;;;;;8.05;5.28;;;16.80;99.90;;;;;;4880965;29;20505;-92
2021/10/27 12:34:51;;;;;;;7.50;4.80;;;16.70;99.90;;;;;;4867441;29;20474;-83
2021/10/27 12:37:29;;;;;;;7.05;4.68;;;16.70;99.90;;;;;;4861338;29;20467;-87
2021/10/27 12:40:35;;;;;;;8.35;5.90;;;16.80;99.90;;;;;;4867063;29;20033;-81
2021/10/27 12:43:06;;;;;;;9.25;5.18;;;16.80;99.90;;;;;;4874401;29;20032;-80
2021/10/27 12:45:44;;;;;;;8.65;5.18;;;16.80;99.90;;;;;;4880108;29;20021;-81
2021/10/27 12:48:19;;;;;;;8.07;4.93;;;16.80;99.90;;;;;;4873597;29;20108;-80
2021/10/27 12:51:00;;;;;;;6.60;4.75;;;16.80;99.90;;;;;;4879606;29;20035;-86
2021/10/27 12:53:32;;;;;;;7.13;4.53;;;16.70;99.90;;;;;;4872361;29;20383;-82
2021/10/27 12:56:25;;;;;;;7.47;4.90;;;16.70;99.90;;;;;;4861058;29;20022;-85
2021/10/27 12:59:03;;;;;;;7.15;5.18;;;16.70;99.90;;;;;;4862372;29;20047;-81
2021/10/27 13:01:55;;;;;;;7.97;5.22;;;16.80;99.90;;;;;;4878989;29;20044;-82
2021/10/27 13:04:34;;;;;;;;;;;16.80;99.90;;;;;;4880647;29;20029;-78
2021/10/27 13:07:08;;;;;;;9.18;5.47;;;16.80;99.90;;;;;;4875121;29;19919;-81
2021/10/27 13:15:04;;;;;;;7.75;5.57;;;16.80;99.90;;;;;;4875833;29;20041;-79
2021/10/27 13:30:55;;;;;;;10.18;6.28;;;16.80;99.90;;;;;;4880685;29;20513;-78
2021/10/27 13:33:23;;;;;;;10.00;5.40;;;16.80;99.90;;;;;;4878730;29;20040;-78
2021/10/27 13:35:49;;;;;;;8.70;5.80;;;16.70;99.90;;;;;;4878989;29;20025;-78
2021/10/27 13:38:19;;;;;;;10.65;5.20;;;16.60;99.90;;;;;;4879900;29;20025;-78
2021/10/27 13:40:46;;;;;;;6.97;5.10;;;16.60;99.90;;;;;;4878356;29;20032;-78
2021/10/27 13:43:20;;;;;;;8.95;5.50;;;16.60;99.90;;;;;;4880389;29;20056;-79
2021/10/27 13:46:09;;;;;;;8.30;5.75;;;16.50;99.90;;;;;;4878882;29;20105;-78
2021/10/27 14:07:56;;;;;;;7.53;5.63;;;16.40;99.90;;;;;;4879097;29;20056;-81
2021/10/27 14:13:02;;;;;;;7.90;5.18;;;16.40;99.90;;;;;;4878785;29;20037;-81
2021/10/27 14:18:46;;;;;;;8.32;5.07;;;16.30;99.90;;;;;;4874552;29;20036;-78
2021/10/27 14:40:40;;;;;;;7.97;4.78;;;16.00;99.90;;;;;;4876619;29;20052;-78
2021/10/27 15:20:55;;;;;;;9.57;5.82;;;15.40;99.90;;;;;;4868772;29;20064;-79
2021/10/27 15:23:32;;;;;;;6.28;4.90;;;15.40;99.90;;;;;;4876605;29;20493;-75
2021/10/27 15:28:49;;;;;;;9.38;5.53;;;15.30;99.90;;;;;;4876148;29;20056;-81
2021/10/27 15:31:26;;;;;;;8.38;5.18;;;15.30;99.90;;;;;;4882611;29;20410;-83
2021/10/27 15:37:19;;;;;;;20.67;5.35;;;15.20;99.90;;;;;;4884469;29;20041;-77
2021/10/27 15:44:59;;;;;;;8.77;5.03;;;15.10;99.90;;;;;;4883530;29;20041;-77
2021/10/27 15:50:34;;;;;;;7.10;4.60;;;15.10;99.90;;;;;;4865213;29;20108;-77
2021/10/27 15:50:35;;;;;;;7.60;5.03;;;15.10;99.90;;;;;;4865695;29;20517;-80
2021/10/27 15:53:01;;;;;;;7.82;4.28;;;15.00;99.90;;;;;;4865531;29;20037;-80
2021/10/27 15:55:27;;;;;;;5.70;4.10;;;15.10;99.90;;;;;;4866596;29;20108;-78
2021/10/27 15:57:53;;;;;;;6.13;4.00;;;15.00;99.90;;;;;;4866168;29;20140;-78
2021/10/27 16:00:21;;;;;;;5.30;4.00;;;15.00;99.90;;;;;;4882243;29;20108;-78
2021/10/27 16:02:47;;;;;;;6.80;4.30;;;14.90;99.90;;;;;;4881838;29;20029;-79
2021/10/27 16:05:13;;;;;;;6.63;3.85;;;14.90;99.90;;;;;;4883076;29;20033;-78
2021/10/27 16:07:41;;;;;;;9.15;4.20;;;14.80;99.90;;;;;;4882432;29;20025;-77
2021/10/27 16:10:14;;;;;;;6.53;4.00;;;14.80;99.90;;;;;;4881987;29;20127;-81
2021/10/27 16:12:40;;;;;;;9.63;4.43;;;14.70;99.90;;;;;;4884115;29;20028;-78
2021/10/27 16:15:12;;;;;;;8.27;4.22;;;14.70;99.90;;;;;;4882755;29;20446;-77
2021/10/27 16:17:41;;;;;;;8.50;4.65;;;14.60;99.90;;;;;;4895162;29;20033;-80
2021/10/27 16:20:08;;;;;;;7.78;4.65;;;14.60;99.90;;;;;;4877838;29;20077;-79
2021/10/27 16:22:34;;;;;;;8.15;4.13;;;14.60;99.90;;;;;;4882706;29;20028;-79
2021/10/27 16:25:00;;;;;;;5.97;3.92;;;14.50;99.90;;;;;;4882627;29;20100;-83
2021/10/27 16:27:26;;;;;;;3.92;3.60;;;14.50;99.90;;;;;;4882915;29;20537;-77
2021/10/27 16:29:51;;;;;;;7.20;4.00;;;14.40;99.90;;;;;;4870971;29;20037;-79
2021/10/27 16:32:18;;;;;;;8.70;4.10;;;14.30;99.90;;;;;;4882014;29;20610;-87
2021/10/27 16:34:44;;;;;;;7.00;4.13;;;14.30;99.90;;;;;;4883899;29;20173;-77
2021/10/27 16:37:10;;;;;;;8.48;4.40;;;14.20;99.90;;;;;;4883565;29;20541;-80
2021/10/27 16:39:36;;;;;;;7.30;4.20;;;14.20;99.90;;;;;;4878517;29;20029;-81
2021/10/27 16:42:02;;;;;;;5.55;3.88;;;14.20;99.90;;;;;;4867447;29;20509;-77
2021/10/27 16:44:28;;;;;;;9.43;3.70;;;14.20;99.90;;;;;;4867549;29;20033;-77
2021/10/27 16:46:53;;;;;;;8.55;3.70;;;14.20;99.90;;;;;;4880100;29;20025;-77
2021/10/27 16:49:19;;;;;;;5.75;4.10;;;14.20;99.90;;;;;;4876777;29;20049;-77
2021/10/27 16:51:45;;;;;;;11.40;4.03;;;14.10;99.90;;;;;;4880926;29;20057;-78
2021/10/27 16:54:10;;;;;;;6.63;3.83;;;14.10;99.90;;;;;;4879772;29;20035;-77
2021/10/27 16:56:37;;;;;;;7.00;3.53;;;14.10;99.90;;;;;;4878719;29;20073;-79
2021/10/27 16:59:02;;;;;;;5.50;3.67;;;14.00;99.90;;;;;;4878376;29;20127;-82
2021/10/27 17:01:29;;;;;;;7.18;4.07;;;14.00;99.90;;;;;;4879844;29;20037;-78
2021/10/27 17:03:54;;;;;;;8.38;3.65;;;14.00;99.90;;;;;;4879189;29;20031;-83
2021/10/27 17:06:20;;;;;;;5.93;3.38;;;13.90;99.90;;;;;;4879666;29;20033;-77
2021/10/27 17:08:46;;;;;;;5.38;3.50;;;13.90;99.90;;;;;;4877904;29;20069;-83
2021/10/27 17:11:12;;;;;;;6.68;3.63;;;13.90;99.90;;;;;;4879791;29;20054;-80
2021/10/27 17:13:39;;;;;;;7.85;3.90;;;13.90;99.90;;;;;;4876539;29;20029;-77
2021/10/27 17:16:04;;;;;;;4.25;3.50;;;13.90;99.90;;;;;;4879100;29;20541;-78